sensor_id;sensor_type;location;lat;lon;timestamp;P1;durP1;ratioP1;P2;durP2;ratioP2
23142;SDS011;11740;51.168;4.112;2023-07-31T00:00:04;14.95;;;5.80;;
23142;SDS011;11740;51.168;4.112;2023-07-31T00:02:32;14.77;;;6.47;;
23142;SDS011;11740;51.168;4.112;2023-07-31T00:04:59;16.38;;;6.30;;
23142;SDS011;11740;51.168;4.112;2023-07-31T00:07:27;22.27;;;6.50;;
23142;SDS011;11740;51.168;4.112;2023-07-31T00:09:54;15.07;;;6.07;;
23142;SDS011;11740;51.168;4.112;2023-07-31T00:12:23;18.63;;;6.50;;
23142;SDS011;11740;51.168;4.112;2023-07-31T00:14:50;25.67;;;6.50;;
23142;SDS011;11740;51.168;4.112;2023-07-31T00:17:17;14.73;;;6.10;;
23142;SDS011;11740;51.168;4.112;2023-07-31T00:19:44;14.00;;;5.82;;
23142;SDS011;11740;51.168;4.112;2023-07-31T00:22:12;21.65;;;6.45;;
23142;SDS011;11740;51.168;4.112;2023-07-31T00:24:39;22.00;;;6.60;;
23142;SDS011;11740;51.168;4.112;2023-07-31T00:27:06;19.42;;;6.72;;
23142;SDS011;11740;51.168;4.112;2023-07-31T00:29:33;19.17;;;6.00;;
23142;SDS011;11740;51.168;4.112;2023-07-31T00:31:59;20.98;;;6.60;;
23142;SDS011;11740;51.168;4.112;2023-07-31T00:34:26;19.60;;;6.57;;
23142;SDS011;11740;51.168;4.112;2023-07-31T00:36:53;21.85;;;6.57;;
23142;SDS011;11740;51.168;4.112;2023-07-31T00:39:20;15.63;;;6.43;;
23142;SDS011;11740;51.168;4.112;2023-07-31T00:41:47;21.00;;;6.85;;
23142;SDS011;11740;51.168;4.112;2023-07-31T00:44:14;18.92;;;6.40;;
23142;SDS011;11740;51.168;4.112;2023-07-31T00:46:41;20.20;;;6.70;;
23142;SDS011;11740;51.168;4.112;2023-07-31T00:49:08;18.58;;;6.40;;
23142;SDS011;11740;51.168;4.112;2023-07-31T00:51:36;23.10;;;6.55;;
23142;SDS011;11740;51.168;4.112;2023-07-31T00:54:03;16.88;;;6.13;;
23142;SDS011;11740;51.168;4.112;2023-07-31T00:56:30;18.92;;;7.03;;
23142;SDS011;11740;51.168;4.112;2023-07-31T00:58:57;16.67;;;6.32;;
23142;SDS011;11740;51.168;4.112;2023-07-31T01:01:24;21.83;;;6.80;;
23142;SDS011;11740;51.168;4.112;2023-07-31T01:03:51;17.15;;;6.40;;
23142;SDS011;11740;51.168;4.112;2023-07-31T01:09:13;17.50;;;7.10;;
23142;SDS011;11740;51.168;4.112;2023-07-31T01:11:56;18.70;;;6.57;;
23142;SDS011;11740;51.168;4.112;2023-07-31T01:14:27;19.63;;;6.53;;
23142;SDS011;11740;51.168;4.112;2023-07-31T01:16:55;19.08;;;6.68;;
23142;SDS011;11740;51.168;4.112;2023-07-31T01:19:23;16.42;;;6.10;;
23142;SDS011;11740;51.168;4.112;2023-07-31T01:22:09;18.95;;;6.22;;
23142;SDS011;11740;51.168;4.112;2023-07-31T01:28:10;20.60;;;6.57;;
23142;SDS011;11740;51.168;4.112;2023-07-31T01:30:43;17.15;;;5.93;;
23142;SDS011;11740;51.168;4.112;2023-07-31T01:33:17;20.33;;;6.30;;
23142;SDS011;11740;51.168;4.112;2023-07-31T01:35:45;14.82;;;5.75;;
23142;SDS011;11740;51.168;4.112;2023-07-31T01:38:15;17.13;;;6.47;;
23142;SDS011;11740;51.168;4.112;2023-07-31T01:40:42;17.50;;;6.22;;
23142;SDS011;11740;51.168;4.112;2023-07-31T01:43:09;12.77;;;5.97;;
23142;SDS011;11740;51.168;4.112;2023-07-31T01:45:36;16.20;;;5.65;;
23142;SDS011;11740;51.168;4.112;2023-07-31T01:48:03;17.15;;;5.88;;
23142;SDS011;11740;51.168;4.112;2023-07-31T01:50:30;19.85;;;5.97;;
23142;SDS011;11740;51.168;4.112;2023-07-31T01:52:57;19.33;;;6.60;;
23142;SDS011;11740;51.168;4.112;2023-07-31T01:55:24;16.95;;;5.57;;
23142;SDS011;11740;51.168;4.112;2023-07-31T01:57:51;17.58;;;5.93;;
23142;SDS011;11740;51.168;4.112;2023-07-31T02:00:18;16.48;;;5.75;;
23142;SDS011;11740;51.168;4.112;2023-07-31T02:02:45;15.48;;;6.05;;
23142;SDS011;11740;51.168;4.112;2023-07-31T02:05:12;18.33;;;6.05;;
23142;SDS011;11740;51.168;4.112;2023-07-31T02:07:39;15.48;;;6.15;;
23142;SDS011;11740;51.168;4.112;2023-07-31T02:10:06;15.35;;;5.53;;
23142;SDS011;11740;51.168;4.112;2023-07-31T02:12:34;16.88;;;5.93;;
23142;SDS011;11740;51.168;4.112;2023-07-31T02:15:01;15.27;;;5.18;;
23142;SDS011;11740;51.168;4.112;2023-07-31T02:17:28;15.90;;;5.45;;
23142;SDS011;11740;51.168;4.112;2023-07-31T02:19:55;16.25;;;6.05;;
23142;SDS011;11740;51.168;4.112;2023-07-31T02:22:22;19.70;;;6.35;;
23142;SDS011;11740;51.168;4.112;2023-07-31T02:24:49;13.35;;;5.28;;
23142;SDS011;11740;51.168;4.112;2023-07-31T02:27:16;13.55;;;5.40;;
23142;SDS011;11740;51.168;4.112;2023-07-31T02:29:43;17.15;;;5.65;;
23142;SDS011;11740;51.168;4.112;2023-07-31T02:32:10;20.38;;;5.65;;
23142;SDS011;11740;51.168;4.112;2023-07-31T02:34:38;14.98;;;5.40;;
23142;SDS011;11740;51.168;4.112;2023-07-31T02:37:05;13.52;;;5.22;;
23142;SDS011;11740;51.168;4.112;2023-07-31T02:39:32;17.33;;;5.80;;
23142;SDS011;11740;51.168;4.112;2023-07-31T02:41:59;16.00;;;5.35;;
23142;SDS011;11740;51.168;4.112;2023-07-31T02:44:27;16.25;;;5.00;;
23142;SDS011;11740;51.168;4.112;2023-07-31T02:46:54;14.10;;;5.18;;
23142;SDS011;11740;51.168;4.112;2023-07-31T02:49:21;15.52;;;5.53;;
23142;SDS011;11740;51.168;4.112;2023-07-31T02:51:48;19.52;;;5.50;;
23142;SDS011;11740;51.168;4.112;2023-07-31T02:54:15;14.43;;;5.05;;
23142;SDS011;11740;51.168;4.112;2023-07-31T02:56:41;16.77;;;5.00;;
23142;SDS011;11740;51.168;4.112;2023-07-31T02:59:09;12.15;;;4.90;;
23142;SDS011;11740;51.168;4.112;2023-07-31T03:01:35;14.40;;;4.78;;
23142;SDS011;11740;51.168;4.112;2023-07-31T03:04:02;13.82;;;5.00;;
23142;SDS011;11740;51.168;4.112;2023-07-31T03:06:30;16.10;;;5.53;;
23142;SDS011;11740;51.168;4.112;2023-07-31T03:08:56;16.67;;;5.28;;
23142;SDS011;11740;51.168;4.112;2023-07-31T03:11:24;13.65;;;4.80;;
23142;SDS011;11740;51.168;4.112;2023-07-31T03:13:50;14.43;;;5.18;;
23142;SDS011;11740;51.168;4.112;2023-07-31T03:16:18;13.05;;;4.80;;
23142;SDS011;11740;51.168;4.112;2023-07-31T03:18:45;16.38;;;5.70;;
23142;SDS011;11740;51.168;4.112;2023-07-31T03:21:12;17.70;;;4.72;;
23142;SDS011;11740;51.168;4.112;2023-07-31T03:23:39;12.52;;;4.32;;
23142;SDS011;11740;51.168;4.112;2023-07-31T03:26:07;17.73;;;5.05;;
23142;SDS011;11740;51.168;4.112;2023-07-31T03:28:34;13.80;;;5.18;;
23142;SDS011;11740;51.168;4.112;2023-07-31T03:31:01;15.27;;;4.88;;
23142;SDS011;11740;51.168;4.112;2023-07-31T03:33:28;17.98;;;5.80;;
23142;SDS011;11740;51.168;4.112;2023-07-31T03:35:55;13.45;;;4.70;;
23142;SDS011;11740;51.168;4.112;2023-07-31T03:38:22;14.10;;;5.10;;
23142;SDS011;11740;51.168;4.112;2023-07-31T03:40:49;12.85;;;5.13;;
23142;SDS011;11740;51.168;4.112;2023-07-31T03:43:16;17.02;;;5.38;;
23142;SDS011;11740;51.168;4.112;2023-07-31T03:45:43;16.30;;;5.15;;
23142;SDS011;11740;51.168;4.112;2023-07-31T03:48:10;18.30;;;5.60;;
23142;SDS011;11740;51.168;4.112;2023-07-31T03:50:37;17.40;;;5.63;;
23142;SDS011;11740;51.168;4.112;2023-07-31T03:53:04;13.35;;;5.00;;
23142;SDS011;11740;51.168;4.112;2023-07-31T03:55:30;15.48;;;5.80;;
23142;SDS011;11740;51.168;4.112;2023-07-31T03:57:57;14.38;;;4.63;;
23142;SDS011;11740;51.168;4.112;2023-07-31T04:00:26;17.70;;;5.35;;
23142;SDS011;11740;51.168;4.112;2023-07-31T04:02:53;15.90;;;5.32;;
23142;SDS011;11740;51.168;4.112;2023-07-31T04:05:20;9.93;;;4.78;;
23142;SDS011;11740;51.168;4.112;2023-07-31T04:07:47;12.15;;;4.90;;
23142;SDS011;11740;51.168;4.112;2023-07-31T04:10:14;11.40;;;4.70;;
23142;SDS011;11740;51.168;4.112;2023-07-31T04:12:41;16.15;;;5.07;;
23142;SDS011;11740;51.168;4.112;2023-07-31T04:15:08;13.70;;;5.22;;
23142;SDS011;11740;51.168;4.112;2023-07-31T04:17:36;13.35;;;5.03;;
23142;SDS011;11740;51.168;4.112;2023-07-31T04:20:03;12.13;;;5.05;;
23142;SDS011;11740;51.168;4.112;2023-07-31T04:22:30;11.77;;;5.15;;
23142;SDS011;11740;51.168;4.112;2023-07-31T04:24:57;15.15;;;5.78;;
23142;SDS011;11740;51.168;4.112;2023-07-31T04:27:24;13.27;;;5.30;;
23142;SDS011;11740;51.168;4.112;2023-07-31T04:29:51;10.38;;;5.20;;
23142;SDS011;11740;51.168;4.112;2023-07-31T04:32:18;18.63;;;5.93;;
23142;SDS011;11740;51.168;4.112;2023-07-31T04:34:46;8.25;;;4.78;;
23142;SDS011;11740;51.168;4.112;2023-07-31T04:37:13;12.35;;;4.88;;
23142;SDS011;11740;51.168;4.112;2023-07-31T04:39:40;10.75;;;4.80;;
23142;SDS011;11740;51.168;4.112;2023-07-31T04:42:07;12.57;;;5.05;;
23142;SDS011;11740;51.168;4.112;2023-07-31T04:44:34;12.98;;;4.78;;
23142;SDS011;11740;51.168;4.112;2023-07-31T04:47:01;10.95;;;4.63;;
23142;SDS011;11740;51.168;4.112;2023-07-31T04:49:29;10.82;;;4.97;;
23142;SDS011;11740;51.168;4.112;2023-07-31T04:51:56;10.55;;;4.47;;
23142;SDS011;11740;51.168;4.112;2023-07-31T04:54:22;10.98;;;4.30;;
23142;SDS011;11740;51.168;4.112;2023-07-31T04:56:52;9.75;;;4.10;;
23142;SDS011;11740;51.168;4.112;2023-07-31T04:59:19;9.55;;;4.40;;
23142;SDS011;11740;51.168;4.112;2023-07-31T05:01:46;8.98;;;4.38;;
23142;SDS011;11740;51.168;4.112;2023-07-31T05:04:13;9.57;;;4.03;;
23142;SDS011;11740;51.168;4.112;2023-07-31T05:06:41;9.95;;;4.15;;
23142;SDS011;11740;51.168;4.112;2023-07-31T05:09:08;8.43;;;3.90;;
23142;SDS011;11740;51.168;4.112;2023-07-31T05:11:35;8.80;;;4.20;;
23142;SDS011;11740;51.168;4.112;2023-07-31T05:14:02;8.00;;;3.92;;
23142;SDS011;11740;51.168;4.112;2023-07-31T05:16:29;8.43;;;4.05;;
23142;SDS011;11740;51.168;4.112;2023-07-31T05:18:56;8.70;;;3.50;;
23142;SDS011;11740;51.168;4.112;2023-07-31T05:21:23;5.82;;;3.42;;
23142;SDS011;11740;51.168;4.112;2023-07-31T05:23:50;6.47;;;3.72;;
23142;SDS011;11740;51.168;4.112;2023-07-31T05:26:17;10.13;;;3.72;;
23142;SDS011;11740;51.168;4.112;2023-07-31T05:28:44;6.60;;;3.40;;
23142;SDS011;11740;51.168;4.112;2023-07-31T05:31:11;6.60;;;3.70;;
23142;SDS011;11740;51.168;4.112;2023-07-31T05:33:38;6.25;;;3.42;;
23142;SDS011;11740;51.168;4.112;2023-07-31T05:36:05;7.18;;;3.40;;
23142;SDS011;11740;51.168;4.112;2023-07-31T05:38:32;7.43;;;3.75;;
23142;SDS011;11740;51.168;4.112;2023-07-31T05:40:59;6.85;;;3.50;;
23142;SDS011;11740;51.168;4.112;2023-07-31T05:43:26;5.75;;;3.30;;
23142;SDS011;11740;51.168;4.112;2023-07-31T05:45:53;7.32;;;3.60;;
23142;SDS011;11740;51.168;4.112;2023-07-31T05:48:20;9.93;;;3.90;;
23142;SDS011;11740;51.168;4.112;2023-07-31T05:50:47;7.13;;;3.67;;
23142;SDS011;11740;51.168;4.112;2023-07-31T05:53:14;9.65;;;4.20;;
23142;SDS011;11740;51.168;4.112;2023-07-31T05:55:41;9.40;;;4.38;;
23142;SDS011;11740;51.168;4.112;2023-07-31T05:58:08;8.40;;;4.55;;
23142;SDS011;11740;51.168;4.112;2023-07-31T06:00:35;6.28;;;4.30;;
23142;SDS011;11740;51.168;4.112;2023-07-31T06:03:02;11.57;;;4.30;;
23142;SDS011;11740;51.168;4.112;2023-07-31T06:05:29;8.68;;;4.35;;
23142;SDS011;11740;51.168;4.112;2023-07-31T06:07:56;6.70;;;3.95;;
23142;SDS011;11740;51.168;4.112;2023-07-31T06:10:23;8.88;;;4.38;;
23142;SDS011;11740;51.168;4.112;2023-07-31T06:12:50;11.40;;;4.40;;
23142;SDS011;11740;51.168;4.112;2023-07-31T06:15:17;6.47;;;4.40;;
23142;SDS011;11740;51.168;4.112;2023-07-31T06:17:45;7.57;;;4.10;;
23142;SDS011;11740;51.168;4.112;2023-07-31T06:20:12;12.23;;;4.80;;
23142;SDS011;11740;51.168;4.112;2023-07-31T06:22:39;7.97;;;4.68;;
23142;SDS011;11740;51.168;4.112;2023-07-31T06:25:06;9.93;;;4.22;;
23142;SDS011;11740;51.168;4.112;2023-07-31T06:27:34;10.45;;;4.50;;
23142;SDS011;11740;51.168;4.112;2023-07-31T06:30:01;10.10;;;5.03;;
23142;SDS011;11740;51.168;4.112;2023-07-31T06:32:30;12.07;;;4.78;;
23142;SDS011;11740;51.168;4.112;2023-07-31T06:34:57;9.90;;;4.38;;
23142;SDS011;11740;51.168;4.112;2023-07-31T06:37:24;9.18;;;5.00;;
23142;SDS011;11740;51.168;4.112;2023-07-31T06:39:51;10.13;;;5.13;;
23142;SDS011;11740;51.168;4.112;2023-07-31T06:42:17;11.70;;;4.78;;
23142;SDS011;11740;51.168;4.112;2023-07-31T06:44:44;9.75;;;4.63;;
23142;SDS011;11740;51.168;4.112;2023-07-31T06:47:11;9.73;;;4.55;;
23142;SDS011;11740;51.168;4.112;2023-07-31T06:49:38;10.35;;;4.72;;
23142;SDS011;11740;51.168;4.112;2023-07-31T06:52:05;10.68;;;4.97;;
23142;SDS011;11740;51.168;4.112;2023-07-31T06:54:32;11.13;;;4.82;;
23142;SDS011;11740;51.168;4.112;2023-07-31T06:57:00;8.05;;;4.38;;
23142;SDS011;11740;51.168;4.112;2023-07-31T06:59:27;11.20;;;4.63;;
23142;SDS011;11740;51.168;4.112;2023-07-31T07:01:54;9.60;;;4.68;;
23142;SDS011;11740;51.168;4.112;2023-07-31T07:04:21;9.25;;;4.90;;
23142;SDS011;11740;51.168;4.112;2023-07-31T07:06:48;11.75;;;4.80;;
23142;SDS011;11740;51.168;4.112;2023-07-31T07:09:15;8.80;;;4.53;;
23142;SDS011;11740;51.168;4.112;2023-07-31T07:11:41;10.30;;;4.80;;
23142;SDS011;11740;51.168;4.112;2023-07-31T07:14:08;7.40;;;4.43;;
23142;SDS011;11740;51.168;4.112;2023-07-31T07:16:36;8.45;;;4.07;;
23142;SDS011;11740;51.168;4.112;2023-07-31T07:19:04;9.95;;;4.40;;
23142;SDS011;11740;51.168;4.112;2023-07-31T07:21:31;9.02;;;4.20;;
23142;SDS011;11740;51.168;4.112;2023-07-31T07:23:58;10.45;;;4.93;;
23142;SDS011;11740;51.168;4.112;2023-07-31T07:26:25;10.52;;;4.45;;
23142;SDS011;11740;51.168;4.112;2023-07-31T07:28:52;11.88;;;5.13;;
23142;SDS011;11740;51.168;4.112;2023-07-31T07:31:19;5.88;;;4.10;;
23142;SDS011;11740;51.168;4.112;2023-07-31T07:33:46;13.70;;;4.50;;
23142;SDS011;11740;51.168;4.112;2023-07-31T07:36:13;10.30;;;4.43;;
23142;SDS011;11740;51.168;4.112;2023-07-31T07:38:40;10.85;;;4.05;;
23142;SDS011;11740;51.168;4.112;2023-07-31T07:41:07;10.80;;;4.22;;
23142;SDS011;11740;51.168;4.112;2023-07-31T07:43:34;10.52;;;4.20;;
23142;SDS011;11740;51.168;4.112;2023-07-31T07:46:01;9.25;;;4.13;;
23142;SDS011;11740;51.168;4.112;2023-07-31T07:48:28;9.38;;;3.90;;
23142;SDS011;11740;51.168;4.112;2023-07-31T07:50:55;10.93;;;4.40;;
23142;SDS011;11740;51.168;4.112;2023-07-31T07:53:22;6.95;;;3.78;;
23142;SDS011;11740;51.168;4.112;2023-07-31T07:55:49;11.00;;;4.50;;
23142;SDS011;11740;51.168;4.112;2023-07-31T07:58:16;9.18;;;3.90;;
23142;SDS011;11740;51.168;4.112;2023-07-31T08:00:48;6.93;;;3.40;;
23142;SDS011;11740;51.168;4.112;2023-07-31T08:03:17;8.93;;;4.38;;
23142;SDS011;11740;51.168;4.112;2023-07-31T08:05:45;8.30;;;3.75;;
23142;SDS011;11740;51.168;4.112;2023-07-31T08:08:15;6.43;;;3.70;;
23142;SDS011;11740;51.168;4.112;2023-07-31T08:10:42;8.10;;;4.03;;
23142;SDS011;11740;51.168;4.112;2023-07-31T08:13:11;6.00;;;3.10;;
23142;SDS011;11740;51.168;4.112;2023-07-31T08:15:40;8.02;;;4.13;;
23142;SDS011;11740;51.168;4.112;2023-07-31T08:18:09;7.82;;;3.30;;
23142;SDS011;11740;51.168;4.112;2023-07-31T08:20:38;7.53;;;3.53;;
23142;SDS011;11740;51.168;4.112;2023-07-31T08:23:05;6.80;;;3.40;;
23142;SDS011;11740;51.168;4.112;2023-07-31T08:25:34;5.03;;;3.63;;
23142;SDS011;11740;51.168;4.112;2023-07-31T08:28:02;8.48;;;3.63;;
23142;SDS011;11740;51.168;4.112;2023-07-31T08:30:31;5.03;;;3.30;;
23142;SDS011;11740;51.168;4.112;2023-07-31T08:33:00;7.70;;;3.58;;
23142;SDS011;11740;51.168;4.112;2023-07-31T08:35:27;6.13;;;3.10;;
23142;SDS011;11740;51.168;4.112;2023-07-31T08:37:56;9.55;;;3.47;;
23142;SDS011;11740;51.168;4.112;2023-07-31T08:40:23;6.85;;;3.67;;
23142;SDS011;11740;51.168;4.112;2023-07-31T08:42:55;6.18;;;3.47;;
23142;SDS011;11740;51.168;4.112;2023-07-31T08:45:23;8.85;;;3.55;;
23142;SDS011;11740;51.168;4.112;2023-07-31T08:47:50;6.72;;;3.45;;
23142;SDS011;11740;51.168;4.112;2023-07-31T08:50:19;7.03;;;3.60;;
23142;SDS011;11740;51.168;4.112;2023-07-31T08:52:48;6.18;;;3.17;;
23142;SDS011;11740;51.168;4.112;2023-07-31T08:55:17;6.47;;;3.28;;
23142;SDS011;11740;51.168;4.112;2023-07-31T08:57:51;5.78;;;3.05;;
23142;SDS011;11740;51.168;4.112;2023-07-31T09:00:21;5.78;;;2.90;;
23142;SDS011;11740;51.168;4.112;2023-07-31T09:03:03;6.20;;;2.90;;
23142;SDS011;11740;51.168;4.112;2023-07-31T09:05:42;7.38;;;3.25;;
23142;SDS011;11740;51.168;4.112;2023-07-31T09:08:12;6.57;;;3.33;;
23142;SDS011;11740;51.168;4.112;2023-07-31T09:10:41;7.68;;;2.80;;
23142;SDS011;11740;51.168;4.112;2023-07-31T09:13:09;7.70;;;3.03;;
23142;SDS011;11740;51.168;4.112;2023-07-31T09:15:38;4.85;;;2.92;;
23142;SDS011;11740;51.168;4.112;2023-07-31T09:18:07;6.97;;;2.90;;
23142;SDS011;11740;51.168;4.112;2023-07-31T09:20:35;5.13;;;2.75;;
23142;SDS011;11740;51.168;4.112;2023-07-31T09:23:07;4.70;;;2.40;;
23142;SDS011;11740;51.168;4.112;2023-07-31T09:25:37;6.70;;;3.00;;
23142;SDS011;11740;51.168;4.112;2023-07-31T09:28:06;4.55;;;2.85;;
23142;SDS011;11740;51.168;4.112;2023-07-31T09:30:48;3.97;;;2.63;;
23142;SDS011;11740;51.168;4.112;2023-07-31T09:33:18;5.05;;;2.90;;
23142;SDS011;11740;51.168;4.112;2023-07-31T09:35:46;3.97;;;3.15;;
23142;SDS011;11740;51.168;4.112;2023-07-31T09:38:15;5.55;;;2.58;;
23142;SDS011;11740;51.168;4.112;2023-07-31T09:40:43;6.38;;;3.08;;
23142;SDS011;11740;51.168;4.112;2023-07-31T09:43:13;3.83;;;2.58;;
23142;SDS011;11740;51.168;4.112;2023-07-31T09:45:47;5.15;;;2.88;;
23142;SDS011;11740;51.168;4.112;2023-07-31T09:48:19;5.30;;;3.13;;
23142;SDS011;11740;51.168;4.112;2023-07-31T09:50:46;5.28;;;3.08;;
23142;SDS011;11740;51.168;4.112;2023-07-31T09:53:15;3.80;;;3.03;;
23142;SDS011;11740;51.168;4.112;2023-07-31T09:55:43;6.03;;;3.42;;
23142;SDS011;11740;51.168;4.112;2023-07-31T09:58:11;8.27;;;3.58;;
23142;SDS011;11740;51.168;4.112;2023-07-31T10:00:39;6.25;;;3.67;;
23142;SDS011;11740;51.168;4.112;2023-07-31T10:03:07;5.65;;;3.40;;
23142;SDS011;11740;51.168;4.112;2023-07-31T10:05:37;9.10;;;3.92;;
23142;SDS011;11740;51.168;4.112;2023-07-31T10:08:18;5.18;;;3.17;;
23142;SDS011;11740;51.168;4.112;2023-07-31T10:10:48;7.07;;;4.15;;
23142;SDS011;11740;51.168;4.112;2023-07-31T10:13:15;5.43;;;3.60;;
23142;SDS011;11740;51.168;4.112;2023-07-31T10:15:43;5.78;;;3.75;;
23142;SDS011;11740;51.168;4.112;2023-07-31T10:18:11;7.65;;;3.67;;
23142;SDS011;11740;51.168;4.112;2023-07-31T10:20:39;8.52;;;3.92;;
23142;SDS011;11740;51.168;4.112;2023-07-31T10:23:07;5.75;;;3.83;;
23142;SDS011;11740;51.168;4.112;2023-07-31T10:25:35;8.27;;;3.88;;
23142;SDS011;11740;51.168;4.112;2023-07-31T10:28:03;9.43;;;3.97;;
23142;SDS011;11740;51.168;4.112;2023-07-31T10:30:31;6.55;;;4.25;;
23142;SDS011;11740;51.168;4.112;2023-07-31T10:33:00;8.45;;;4.07;;
23142;SDS011;11740;51.168;4.112;2023-07-31T10:35:29;9.85;;;4.13;;
23142;SDS011;11740;51.168;4.112;2023-07-31T10:37:56;6.70;;;4.07;;
23142;SDS011;11740;51.168;4.112;2023-07-31T10:40:39;8.13;;;4.15;;
23142;SDS011;11740;51.168;4.112;2023-07-31T10:43:07;7.30;;;4.30;;
23142;SDS011;11740;51.168;4.112;2023-07-31T10:45:38;5.63;;;4.00;;
23142;SDS011;11740;51.168;4.112;2023-07-31T10:48:15;10.63;;;4.47;;
23142;SDS011;11740;51.168;4.112;2023-07-31T10:50:50;8.02;;;4.15;;
23142;SDS011;11740;51.168;4.112;2023-07-31T10:53:30;8.18;;;4.55;;
23142;SDS011;11740;51.168;4.112;2023-07-31T10:56:02;7.15;;;4.50;;
23142;SDS011;11740;51.168;4.112;2023-07-31T10:58:31;5.82;;;3.88;;
23142;SDS011;11740;51.168;4.112;2023-07-31T11:01:00;8.05;;;4.07;;
23142;SDS011;11740;51.168;4.112;2023-07-31T11:03:49;6.47;;;4.05;;
23142;SDS011;11740;51.168;4.112;2023-07-31T11:06:19;8.43;;;4.50;;
23142;SDS011;11740;51.168;4.112;2023-07-31T11:08:47;8.05;;;4.80;;
23142;SDS011;11740;51.168;4.112;2023-07-31T11:11:17;7.15;;;4.65;;
23142;SDS011;11740;51.168;4.112;2023-07-31T11:13:49;5.78;;;4.40;;
23142;SDS011;11740;51.168;4.112;2023-07-31T11:16:20;9.73;;;4.70;;
23142;SDS011;11740;51.168;4.112;2023-07-31T11:18:50;8.15;;;5.07;;
23142;SDS011;11740;51.168;4.112;2023-07-31T11:21:21;11.55;;;4.93;;
23142;SDS011;11740;51.168;4.112;2023-07-31T11:23:51;8.68;;;4.65;;
23142;SDS011;11740;51.168;4.112;2023-07-31T11:26:26;7.13;;;4.93;;
23142;SDS011;11740;51.168;4.112;2023-07-31T11:28:57;9.95;;;4.97;;
23142;SDS011;11740;51.168;4.112;2023-07-31T11:31:24;7.43;;;4.55;;
23142;SDS011;11740;51.168;4.112;2023-07-31T11:33:58;9.63;;;4.57;;
23142;SDS011;11740;51.168;4.112;2023-07-31T11:36:31;7.47;;;4.75;;
23142;SDS011;11740;51.168;4.112;2023-07-31T11:39:05;9.13;;;5.05;;
23142;SDS011;11740;51.168;4.112;2023-07-31T11:41:36;7.60;;;4.95;;
23142;SDS011;11740;51.168;4.112;2023-07-31T11:44:07;6.90;;;4.60;;
23142;SDS011;11740;51.168;4.112;2023-07-31T11:51:00;8.25;;;4.25;;
23142;SDS011;11740;51.168;4.112;2023-07-31T11:53:38;7.13;;;4.57;;
23142;SDS011;11740;51.168;4.112;2023-07-31T11:56:19;9.40;;;4.82;;
23142;SDS011;11740;51.168;4.112;2023-07-31T11:58:49;9.02;;;4.65;;
23142;SDS011;11740;51.168;4.112;2023-07-31T12:01:21;8.63;;;5.07;;
23142;SDS011;11740;51.168;4.112;2023-07-31T12:03:50;8.90;;;4.50;;
23142;SDS011;11740;51.168;4.112;2023-07-31T12:06:18;7.68;;;4.82;;
23142;SDS011;11740;51.168;4.112;2023-07-31T12:08:47;12.98;;;5.07;;
23142;SDS011;11740;51.168;4.112;2023-07-31T12:11:15;9.45;;;4.40;;
23142;SDS011;11740;51.168;4.112;2023-07-31T12:13:44;10.00;;;4.90;;
23142;SDS011;11740;51.168;4.112;2023-07-31T12:16:11;8.60;;;4.70;;
23142;SDS011;11740;51.168;4.112;2023-07-31T12:18:38;9.55;;;5.10;;
23142;SDS011;11740;51.168;4.112;2023-07-31T12:21:06;7.53;;;4.78;;
23142;SDS011;11740;51.168;4.112;2023-07-31T12:24:28;7.05;;;4.40;;
23142;SDS011;11740;51.168;4.112;2023-07-31T12:26:55;8.18;;;4.65;;
23142;SDS011;11740;51.168;4.112;2023-07-31T12:29:22;9.02;;;4.55;;
23142;SDS011;11740;51.168;4.112;2023-07-31T12:31:49;8.80;;;4.68;;
23142;SDS011;11740;51.168;4.112;2023-07-31T12:34:16;9.52;;;4.97;;
23142;SDS011;11740;51.168;4.112;2023-07-31T12:36:45;7.47;;;4.63;;
23142;SDS011;11740;51.168;4.112;2023-07-31T12:39:12;10.60;;;4.50;;
23142;SDS011;11740;51.168;4.112;2023-07-31T12:41:39;8.90;;;4.55;;
23142;SDS011;11740;51.168;4.112;2023-07-31T12:44:06;8.63;;;4.88;;
23142;SDS011;11740;51.168;4.112;2023-07-31T12:46:33;7.53;;;4.28;;
23142;SDS011;11740;51.168;4.112;2023-07-31T12:49:00;9.80;;;5.10;;
23142;SDS011;11740;51.168;4.112;2023-07-31T12:51:28;10.00;;;5.30;;
23142;SDS011;11740;51.168;4.112;2023-07-31T12:53:55;7.82;;;5.25;;
23142;SDS011;11740;51.168;4.112;2023-07-31T12:56:22;7.82;;;5.38;;
23142;SDS011;11740;51.168;4.112;2023-07-31T12:58:49;11.32;;;5.18;;
23142;SDS011;11740;51.168;4.112;2023-07-31T13:01:16;8.75;;;5.25;;
23142;SDS011;11740;51.168;4.112;2023-07-31T13:03:43;9.13;;;5.60;;
23142;SDS011;11740;51.168;4.112;2023-07-31T13:06:10;9.73;;;5.15;;
23142;SDS011;11740;51.168;4.112;2023-07-31T13:08:37;11.05;;;5.57;;
23142;SDS011;11740;51.168;4.112;2023-07-31T13:11:04;9.35;;;5.57;;
23142;SDS011;11740;51.168;4.112;2023-07-31T13:13:31;8.75;;;5.43;;
23142;SDS011;11740;51.168;4.112;2023-07-31T13:15:58;8.82;;;4.82;;
23142;SDS011;11740;51.168;4.112;2023-07-31T13:18:25;6.03;;;4.40;;
23142;SDS011;11740;51.168;4.112;2023-07-31T13:20:52;9.15;;;4.88;;
23142;SDS011;11740;51.168;4.112;2023-07-31T13:23:19;8.25;;;4.72;;
23142;SDS011;11740;51.168;4.112;2023-07-31T13:25:46;6.25;;;3.90;;
23142;SDS011;11740;51.168;4.112;2023-07-31T13:28:13;4.55;;;3.70;;
23142;SDS011;11740;51.168;4.112;2023-07-31T13:30:41;7.38;;;3.60;;
23142;SDS011;11740;51.168;4.112;2023-07-31T13:33:07;6.18;;;3.80;;
23142;SDS011;11740;51.168;4.112;2023-07-31T13:35:50;6.82;;;3.55;;
23142;SDS011;11740;51.168;4.112;2023-07-31T13:38:17;5.50;;;3.15;;
23142;SDS011;11740;51.168;4.112;2023-07-31T13:40:44;6.85;;;3.30;;
23142;SDS011;11740;51.168;4.112;2023-07-31T13:43:11;6.07;;;3.33;;
23142;SDS011;11740;51.168;4.112;2023-07-31T13:45:38;5.97;;;3.20;;
23142;SDS011;11740;51.168;4.112;2023-07-31T13:48:05;4.47;;;3.03;;
23142;SDS011;11740;51.168;4.112;2023-07-31T13:50:32;4.15;;;2.40;;
23142;SDS011;11740;51.168;4.112;2023-07-31T13:52:58;2.92;;;2.05;;
23142;SDS011;11740;51.168;4.112;2023-07-31T13:55:25;3.58;;;1.90;;
23142;SDS011;11740;51.168;4.112;2023-07-31T13:57:52;2.30;;;2.03;;
23142;SDS011;11740;51.168;4.112;2023-07-31T14:00:19;4.13;;;2.30;;
23142;SDS011;11740;51.168;4.112;2023-07-31T14:02:47;3.03;;;1.90;;
23142;SDS011;11740;51.168;4.112;2023-07-31T14:05:13;3.00;;;2.10;;
23142;SDS011;11740;51.168;4.112;2023-07-31T14:07:40;2.13;;;1.70;;
23142;SDS011;11740;51.168;4.112;2023-07-31T14:10:07;3.45;;;1.92;;
23142;SDS011;11740;51.168;4.112;2023-07-31T14:12:35;3.15;;;1.83;;
23142;SDS011;11740;51.168;4.112;2023-07-31T14:15:09;1.60;;;1.50;;
23142;SDS011;11740;51.168;4.112;2023-07-31T14:17:37;3.15;;;1.77;;
23142;SDS011;11740;51.168;4.112;2023-07-31T14:20:04;6.35;;;1.83;;
23142;SDS011;11740;51.168;4.112;2023-07-31T14:22:32;5.13;;;1.80;;
23142;SDS011;11740;51.168;4.112;2023-07-31T14:25:00;2.58;;;1.38;;
23142;SDS011;11740;51.168;4.112;2023-07-31T14:27:27;2.33;;;1.70;;
23142;SDS011;11740;51.168;4.112;2023-07-31T14:29:54;2.97;;;1.95;;
23142;SDS011;11740;51.168;4.112;2023-07-31T14:32:22;3.88;;;1.98;;
23142;SDS011;11740;51.168;4.112;2023-07-31T14:34:51;3.40;;;1.80;;
23142;SDS011;11740;51.168;4.112;2023-07-31T14:37:18;3.20;;;2.15;;
23142;SDS011;11740;51.168;4.112;2023-07-31T14:39:45;3.17;;;2.17;;
23142;SDS011;11740;51.168;4.112;2023-07-31T14:42:12;3.35;;;2.28;;
23142;SDS011;11740;51.168;4.112;2023-07-31T14:44:39;3.50;;;2.03;;
23142;SDS011;11740;51.168;4.112;2023-07-31T14:47:06;3.75;;;2.25;;
23142;SDS011;11740;51.168;4.112;2023-07-31T14:49:33;3.97;;;2.47;;
23142;SDS011;11740;51.168;4.112;2023-07-31T14:52:00;5.28;;;2.90;;
23142;SDS011;11740;51.168;4.112;2023-07-31T14:54:27;2.95;;;2.20;;
23142;SDS011;11740;51.168;4.112;2023-07-31T14:56:54;3.63;;;2.42;;
23142;SDS011;11740;51.168;4.112;2023-07-31T14:59:21;3.90;;;2.28;;